Dario Filipe — CUHY7 — position and weather

sailwx.info

Track history (hours):
 
Tides and Currents Weather Stations Pressure Air Temp Water Temp Dewpoint Dewpoint Depression Visibility Wind Speed Wind Dir Waves Ship Positions

Dario Filipe

Last reported at 2018-Jun-04 21:59 UTC. Time now 2018-Jun-21 20:02 UTC.
Position N 38°45' W 026°00'.
Warning: this ship's position is 16 days out of date.

Length 24 m.

Type: Fishing. MMSI: 263414640.

Date/timePositionNaut miles runAvg speedWind from/ knotsBaromVisibWave heightAir tempDewpointWater temp
2018-Jun-04 21:59N 38°45' W 026°00'54 1.3
2018-Jun-03 05:12N 39°30' W 026°39'2 6.4
2018-Jun-03 04:54N 39°31' W 026°38'0 0.2
2018-Jun-03 02:44N 39°31' W 026°38'0 1.0
2018-Jun-03 02:30N 39°31' W 026°38'5 0.8
2018-Jun-02 20:32N 39°28' W 026°43'0 5.2
2018-Jun-02 20:30N 39°28' W 026°43'2 4.7
2018-Jun-02 20:00N 39°30' W 026°41'5 4.0
2018-Jun-02 18:42N 39°33' W 026°36'2 6.8
2018-Jun-02 18:23N 39°33' W 026°33'14 7.1
2018-Jun-02 16:29N 39°33' W 026°16'4 7.4
2018-Jun-02 16:00N 39°33' W 026°11'68 5.9
2018-Jun-02 04:24N 39°16' W 027°37'3 8.0
2018-Jun-02 04:00N 39°16' W 027°41'4 7.9
2018-Jun-02 03:30N 39°15' W 027°46'4 7.7
2018-Jun-02 03:00N 39°14' W 027°51'4 7.7
2018-Jun-02 02:30N 39°14' W 027°56'4 7.7
2018-Jun-02 02:00N 39°13' W 028°01'4 7.8
2018-Jun-02 01:30N 39°13' W 028°06'4 7.5
2018-Jun-02 01:00N 39°12' W 028°11'4 7.4
2018-Jun-02 00:28N 39°11' W 028°16'3 7.2
2018-Jun-02 00:00N 39°11' W 028°20'4 7.1
2018-Jun-01 23:30N 39°10' W 028°24'4 7.5
2018-Jun-01 23:01N 39°10' W 028°29'4 6.9
2018-Jun-01 22:30N 39°09' W 028°34'2 5.0
2018-Jun-01 22:00N 39°09' W 028°37'3 5.6
2018-Jun-01 21:31N 39°08' W 028°40'3 5.4
2018-Jun-01 21:00N 39°07' W 028°44'3 6.2
2018-Jun-01 20:30N 39°07' W 028°48'2 4.4
2018-Jun-01 20:00N 39°09' W 028°50'3 5.3
2018-Jun-01 19:30N 39°10' W 028°53'3 6.2
2018-Jun-01 19:00N 39°11' W 028°56'3 5.8
2018-Jun-01 18:30N 39°13' W 028°60'3 5.0
2018-Jun-01 18:00N 39°15' W 029°02'3 5.2
2018-Jun-01 17:30N 39°16' W 029°05'3 6.0
2018-Jun-01 17:00N 39°17' W 029°08'3 6.3
2018-Jun-01 16:29N 39°19' W 029°11'3 6.2
2018-Jun-01 16:00N 39°21' W 029°15'3 5.1
2018-Jun-01 15:30N 39°22' W 029°17'3 6.9
2018-Jun-01 15:00N 39°21' W 029°22'3 5.7
2018-Jun-01 14:30N 39°20' W 029°25'3 5.8
2018-Jun-01 14:00N 39°18' W 029°28'3 6.2
2018-Jun-01 13:30N 39°17' W 029°31'3 5.7
2018-Jun-01 13:00N 39°16' W 029°35'3 6.0
2018-Jun-01 12:30N 39°16' W 029°39'3 5.2
2018-Jun-01 12:00N 39°15' W 029°42'3 5.8
2018-Jun-01 11:30N 39°14' W 029°46'2 4.6
2018-Jun-01 11:00N 39°15' W 029°48'3 5.4
2018-Jun-01 10:30N 39°18' W 029°48'1 1.4
2018-Jun-01 10:00N 39°19' W 029°48'2 2.8
2018-Jun-01 09:27N 39°20' W 029°48'1 1.7
2018-Jun-01 09:00N 39°21' W 029°49'2 3.9
2018-Jun-01 08:30N 39°21' W 029°46'3 6.9
2018-Jun-01 08:00N 39°21' W 029°42'3 7.0
2018-Jun-01 07:30N 39°21' W 029°38'3 6.9
2018-Jun-01 07:00N 39°21' W 029°33'4 7.0
2018-Jun-01 06:30N 39°21' W 029°29'4 7.4
2018-Jun-01 06:00N 39°21' W 029°24'4 7.3
2018-Jun-01 05:30N 39°20' W 029°19'4 7.2
2018-Jun-01 05:00N 39°20' W 029°14'4 7.2
2018-Jun-01 04:30N 39°20' W 029°10'4 7.3
2018-Jun-01 04:00N 39°20' W 029°05'4 7.2
2018-Jun-01 03:30N 39°20' W 029°00'4 7.3
2018-Jun-01 03:00N 39°20' W 028°56'4 7.4
2018-Jun-01 02:30N 39°20' W 028°51'4 7.1
2018-Jun-01 02:00N 39°20' W 028°46'3 7.0
2018-Jun-01 01:30N 39°20' W 028°42'3 6.9
2018-Jun-01 01:00N 39°20' W 028°37'7 3.1
2018-May-31 22:50N 39°14' W 028°39'18 7.8
2018-May-31 20:30N 39°13' W 029°03'4 8.1
2018-May-31 20:00N 39°13' W 029°08'4 8.2
2018-May-31 19:30N 39°13' W 029°13'4 7.7
2018-May-31 19:00N 39°13' W 029°18'3 6.5
2018-May-31 18:30N 39°16' W 029°19'3 5.2
2018-May-31 18:01N 39°19' W 029°18'3 5.2
2018-May-31 17:30N 39°20' W 029°15'2 3.8
2018-May-31 16:55N 39°21' W 029°13'2 4.0
2018-May-31 16:30N 39°20' W 029°11'2 3.3
2018-May-31 16:00N 39°19' W 029°12'3 6.4
2018-May-31 15:30N 39°17' W 029°15'2 4.6
2018-May-31 15:00N 39°15' W 029°17'3 5.6
2018-May-31 14:30N 39°13' W 029°19'3 5.3
2018-May-31 14:00N 39°11' W 029°22'3 6.5
2018-May-31 13:30N 39°08' W 029°23'4 8.5
2018-May-31 13:00N 39°04' W 029°25'2 4.9
2018-May-31 12:30N 39°03' W 029°28'2 4.8
2018-May-31 12:00N 39°02' W 029°31'2 5.0
2018-May-31 11:30N 39°01' W 029°33'2 4.6
2018-May-31 11:00N 39°00' W 029°36'3 5.3
2018-May-31 10:30N 39°02' W 029°39'3 5.1
2018-May-31 10:00N 39°03' W 029°42'3 6.6
2018-May-31 09:30N 39°00' W 029°45'4 6.6
2018-May-31 08:58N 38°58' W 029°48'2 4.9
2018-May-31 08:30N 38°56' W 029°50'3 5.6
2018-May-31 08:00N 38°57' W 029°53'3 6.1
2018-May-31 07:30N 38°59' W 029°55'2 5.0
2018-May-31 07:00N 39°02' W 029°54'3 5.9
2018-May-31 06:31N 39°05' W 029°53'2 4.0
2018-May-31 06:00N 39°07' W 029°53'1 1.3
2018-May-31 05:30N 39°07' W 029°53'1 2.5
2018-May-31 05:00N 39°06' W 029°53'3 5.5
2018-May-31 04:30N 39°09' W 029°52'3 5.4
2018-May-31 04:00N 39°11' W 029°51'3 5.5
2018-May-31 03:30N 39°14' W 029°51'2 4.7
2018-May-31 03:00N 39°16' W 029°50'2 4.5
2018-May-31 02:30N 39°19' W 029°50'2 4.6
2018-May-31 02:00N 39°21' W 029°50'2 3.5
2018-May-31 01:30N 39°23' W 029°49'1 2.6
2018-May-31 00:59N 39°24' W 029°48'1 1.2
2018-May-31 00:17N 39°25' W 029°48'0 0.8
2018-May-30 23:59N 39°25' W 029°48'0 0.8
2018-May-30 23:23N 39°24' W 029°47'0 0.8
2018-May-30 22:56N 39°24' W 029°47'0 0.7
2018-May-30 22:20N 39°24' W 029°46'0 0.7
2018-May-30 21:49N 39°24' W 029°46'0 0.5
2018-May-30 21:26N 39°25' W 029°45'0 0.6
2018-May-30 20:56N 39°25' W 029°45'3 6.6
2018-May-30 20:29N 39°22' W 029°45'3 7.1
2018-May-30 20:00N 39°18' W 029°45'4 7.1
2018-May-30 19:30N 39°15' W 029°45'4 7.0
2018-May-30 19:00N 39°11' W 029°45'3 6.1
2018-May-30 18:30N 39°11' W 029°41'3 6.8
2018-May-30 18:00N 39°11' W 029°37'4 7.1
2018-May-30 17:30N 39°11' W 029°32'4 7.1
2018-May-30 17:00N 39°11' W 029°28'4 7.2
2018-May-30 16:30N 39°11' W 029°23'4 7.3
2018-May-30 16:00N 39°11' W 029°18'4 7.7
2018-May-30 15:30N 39°11' W 029°13'2 4.9
2018-May-30 15:00N 39°09' W 029°12'2 4.8
2018-May-30 14:30N 39°11' W 029°11'3 5.4
2018-May-30 14:00N 39°14' W 029°12'2 3.6
2018-May-30 13:30N 39°16' W 029°13'3 5.2
2018-May-30 13:00N 39°16' W 029°16'3 5.4
2018-May-30 12:29N 39°14' W 029°20'2 4.5
2018-May-30 12:00N 39°14' W 029°22'2 4.9
2018-May-30 11:30N 39°13' W 029°25'2 4.6
2018-May-30 11:00N 39°14' W 029°28'1 2.9
2018-May-30 10:30N 39°15' W 029°30'1 1.5
2018-May-30 10:00N 39°15' W 029°30'3 5.6
2018-May-30 09:30N 39°18' W 029°29'2 4.9
2018-May-30 09:00N 39°20' W 029°28'3 5.8
2018-May-30 08:30N 39°23' W 029°30'3 6.3
2018-May-30 08:00N 39°25' W 029°33'2 3.3
2018-May-30 07:24N 39°26' W 029°35'0 0.7
2018-May-30 07:00N 39°26' W 029°35'2 4.8
2018-May-30 06:30N 39°24' W 029°37'2 4.0
2018-May-30 06:00N 39°22' W 029°38'1 2.6
2018-May-30 05:30N 39°21' W 029°39'1 2.7
2018-May-30 05:00N 39°20' W 029°40'1 2.9
2018-May-30 04:30N 39°19' W 029°41'2 3.1
2018-May-30 04:00N 39°18' W 029°42'2 3.1
2018-May-30 03:30N 39°16' W 029°44'2 3.2
2018-May-30 03:00N 39°15' W 029°45'2 3.2
2018-May-30 02:31N 39°14' W 029°46'2 3.1
2018-May-30 02:00N 39°13' W 029°47'2 3.0
2018-May-30 01:30N 39°11' W 029°48'3 6.6
2018-May-30 00:59N 39°08' W 029°51'3 6.8
2018-May-30 00:30N 39°05' W 029°52'4 7.0
2018-May-30 00:00N 39°02' W 029°53'3 6.6
2018-May-29 23:31N 38°59' W 029°52'3 5.0
2018-May-29 23:00N 38°57' W 029°50'3 7.0
2018-May-29 22:30N 38°57' W 029°46'4 7.2
2018-May-29 22:00N 38°57' W 029°41'4 7.5
2018-May-29 21:30N 38°57' W 029°36'4 7.5
2018-May-29 21:00N 38°57' W 029°32'4 7.4
2018-May-29 20:31N 38°57' W 029°27'4 7.4
2018-May-29 20:00N 38°57' W 029°22'4 7.8
2018-May-29 19:30N 38°57' W 029°17'4 7.2
2018-May-29 19:01N 38°58' W 029°13'4 8.0
2018-May-29 18:30N 39°01' W 029°10'4 8.0
2018-May-29 18:00N 39°04' W 029°06'1 2.9
2018-May-29 17:31N 39°05' W 029°05'3 6.3
2018-May-29 17:00N 39°04' W 029°01'2 5.0
2018-May-29 16:30N 39°03' W 028°58'3 6.5
2018-May-29 16:00N 39°01' W 028°54'3 6.7
2018-May-29 15:30N 39°00' W 028°50'4 7.0
2018-May-29 15:00N 39°02' W 028°47'3 6.5
2018-May-29 14:30N 39°06' W 028°46'3 6.3
2018-May-29 14:00N 39°09' W 028°47'2 4.6
2018-May-29 13:30N 39°11' W 028°47'3 5.6
2018-May-29 13:00N 39°14' W 028°47'3 6.2
2018-May-29 12:30N 39°17' W 028°46'3 6.3
2018-May-29 12:01N 39°20' W 028°44'3 5.8
2018-May-29 11:30N 39°23' W 028°43'2 4.4
2018-May-29 10:59N 39°25' W 028°44'3 6.5
2018-May-29 10:31N 39°26' W 028°47'3 5.8
2018-May-29 10:00N 39°28' W 028°50'3 5.8
2018-May-29 09:29N 39°29' W 028°54'3 6.0
2018-May-29 09:01N 39°30' W 028°57'3 6.0
2018-May-29 08:30N 39°31' W 029°01'2 4.6
2018-May-29 08:00N 39°32' W 029°04'4 7.2
2018-May-29 07:30N 39°31' W 029°08'4 7.2
2018-May-29 07:00N 39°30' W 029°13'3 6.8
2018-May-29 06:30N 39°29' W 029°17'3 6.7
2018-May-29 06:01N 39°29' W 029°21'3 6.6
2018-May-29 05:30N 39°28' W 029°26'3 6.6
2018-May-29 04:59N 39°27' W 029°30'3 5.7
2018-May-29 04:30N 39°25' W 029°32'4 8.1
2018-May-29 04:00N 39°20' W 029°32'3 6.9
2018-May-29 03:30N 39°17' W 029°30'4 8.4
2018-May-29 03:00N 39°13' W 029°30'4 8.0
2018-May-29 02:30N 39°10' W 029°27'4 7.8
2018-May-29 02:00N 39°07' W 029°23'4 7.8
2018-May-29 01:30N 39°05' W 029°19'60 2.7
2018-May-28 03:28N 39°38' W 028°14'13 6.7
2018-May-28 01:31N 39°37' W 028°31'0 6.3
2018-May-28 01:30N 39°37' W 028°31'3 6.6
2018-May-28 01:00N 39°37' W 028°35'3 6.8
2018-May-28 00:30N 39°36' W 028°40'4 7.1
2018-May-27 23:55N 39°36' W 028°45'3 7.1
2018-May-27 23:30N 39°36' W 028°49'4 7.1
2018-May-27 23:00N 39°35' W 028°54'3 7.0
2018-May-27 22:30N 39°35' W 028°58'4 6.9
2018-May-27 21:59N 39°34' W 029°03'3 7.0
2018-May-27 21:30N 39°34' W 029°07'5 7.0
2018-May-27 20:51N 39°33' W 029°13'4 6.5
2018-May-27 20:15N 39°33' W 029°18'2 6.1
2018-May-27 19:59N 39°32' W 029°20'4 7.0
2018-May-27 19:28N 39°29' W 029°19'4 7.6
2018-May-27 19:00N 39°25' W 029°18'3 6.2
2018-May-27 18:30N 39°23' W 029°15'4 7.2
2018-May-27 18:00N 39°23' W 029°10'4 7.1
2018-May-27 17:30N 39°23' W 029°06'3 7.0
2018-May-27 17:00N 39°23' W 029°01'4 7.2
2018-May-27 16:30N 39°23' W 028°56'4 7.1
2018-May-27 16:00N 39°23' W 028°52'4 7.1
2018-May-27 15:30N 39°23' W 028°47'3 6.9
2018-May-27 15:00N 39°22' W 028°43'4 7.1
2018-May-27 14:31N 39°21' W 028°38'4 7.3
2018-May-27 14:00N 39°20' W 028°34'1 2.8
2018-May-27 13:30N 39°20' W 028°32'3 6.1
2018-May-27 12:59N 39°17' W 028°33'3 5.8
2018-May-27 12:29N 39°14' W 028°34'3 5.3
2018-May-27 11:58N 39°11' W 028°36'2 4.4
2018-May-27 11:30N 39°09' W 028°37'3 5.1
2018-May-27 11:00N 39°07' W 028°39'2 4.0
2018-May-27 10:30N 39°06' W 028°41'3 6.1
2018-May-27 10:00N 39°05' W 028°44'2 4.7
2018-May-27 09:30N 39°04' W 028°47'2 4.2
2018-May-27 09:00N 39°05' W 028°50'2 3.2
2018-May-27 08:30N 39°05' W 028°52'2 3.7
2018-May-27 07:58N 39°06' W 028°54'1 2.3
2018-May-27 07:30N 39°07' W 028°55'3 5.1
2018-May-27 07:00N 39°09' W 028°57'3 5.0
2018-May-27 06:30N 39°11' W 028°58'3 6.0
2018-May-27 06:00N 39°14' W 028°59'3 6.4
2018-May-27 05:30N 39°17' W 029°02'2 3.6
2018-May-27 05:00N 39°18' W 029°03'2 5.0
2018-May-27 04:30N 39°21' W 029°02'2 3.5
2018-May-27 03:59N 39°22' W 029°03'0 1.0
2018-May-27 03:30N 39°23' W 029°03'2 4.2
2018-May-27 03:00N 39°24' W 029°01'2 4.2
2018-May-27 02:30N 39°25' W 028°59'2 4.5
2018-May-27 02:01N 39°27' W 028°57'4 7.3
2018-May-27 01:30N 39°29' W 028°53'4 7.7
2018-May-27 01:00N 39°32' W 028°50'4 7.9
2018-May-27 00:31N 39°35' W 028°46'4 7.9
2018-May-27 00:00N 39°37' W 028°42'4 7.9
2018-May-26 23:30N 39°40' W 028°38'4 7.7
2018-May-26 23:01N 39°42' W 028°34'17 3.1
2018-May-26 17:23N 39°32' W 028°16'3 8.0
2018-May-26 16:59N 39°31' W 028°20'4 7.9
2018-May-26 16:30N 39°29' W 028°25'5 7.7
2018-May-26 15:51N 39°28' W 028°31'3 7.6
2018-May-26 15:30N 39°27' W 028°34'2 4.6
2018-May-26 14:57N 39°28' W 028°37'2 5.5
2018-May-26 14:30N 39°30' W 028°38'3 6.0
2018-May-26 14:00N 39°30' W 028°42'3 6.2
2018-May-26 13:30N 39°29' W 028°46'3 6.4
2018-May-26 13:00N 39°30' W 028°50'3 6.8
2018-May-26 12:30N 39°33' W 028°53'3 6.8
2018-May-26 12:00N 39°35' W 028°56'3 6.3
2018-May-26 11:30N 39°38' W 028°59'4 7.0
2018-May-26 10:59N 39°40' W 029°03'3 6.6
2018-May-26 10:29N 39°40' W 029°07'3 6.4
2018-May-26 10:00N 39°40' W 029°11'4 5.7
2018-May-26 09:20N 39°39' W 029°16'3 7.4
2018-May-26 08:58N 39°39' W 029°19'3 6.2
2018-May-26 08:30N 39°38' W 029°23'4 7.0
2018-May-26 07:59N 39°37' W 029°27'3 5.3
2018-May-26 07:26N 39°36' W 029°31'2 3.8
2018-May-26 06:59N 39°35' W 029°33'6 2.8
2018-May-26 04:48N 39°30' W 029°29'2 6.5
2018-May-26 04:30N 39°29' W 029°27'3 6.7
2018-May-26 04:01N 39°26' W 029°24'3 6.6
2018-May-26 03:30N 39°24' W 029°21'3 6.4
2018-May-26 03:00N 39°22' W 029°18'3 6.2
2018-May-26 02:30N 39°20' W 029°15'2 3.4
2018-May-26 01:58N 39°18' W 029°13'0 0.4
2018-May-26 01:24N 39°18' W 029°14'0 0.5
2018-May-26 00:55N 39°18' W 029°14'0 0.6
2018-May-26 00:29N 39°18' W 029°14'0 0.7
2018-May-25 23:59N 39°18' W 029°15'0 0.5
2018-May-25 23:30N 39°18' W 029°15'0 0.5
2018-May-25 22:57N 39°18' W 029°15'0 0.5
2018-May-25 22:30N 39°17' W 029°15'0 0.5
2018-May-25 22:00N 39°17' W 029°16'  
Track history (hours):
 
Tides and Currents Weather Stations Pressure Air Temp Water Temp Dewpoint Dewpoint Depression Visibility Wind Speed Wind Dir Waves Ship Positions

Dario Filipe

Last reported at 2018-Jun-04 21:59 UTC. Time now 2018-Jun-21 20:03 UTC.
Position N 38°45' W 026°00'.
Warning: this ship's position is 16 days out of date.

Length 24 m.

Type: Fishing. MMSI: 263414640.

Date/timePositionNaut miles runAvg speedWind from/ knotsBaromVisibWave heightAir tempDewpointWater temp
2018-Jun-04 21:59N 38°45' W 026°00'54 1.3
2018-Jun-03 05:12N 39°30' W 026°39'2 6.4
2018-Jun-03 04:54N 39°31' W 026°38'0 0.2
2018-Jun-03 02:44N 39°31' W 026°38'0 1.0
2018-Jun-03 02:30N 39°31' W 026°38'5 0.8
2018-Jun-02 20:32N 39°28' W 026°43'0 5.2
2018-Jun-02 20:30N 39°28' W 026°43'2 4.7
2018-Jun-02 20:00N 39°30' W 026°41'5 4.0
2018-Jun-02 18:42N 39°33' W 026°36'2 6.8
2018-Jun-02 18:23N 39°33' W 026°33'14 7.1
2018-Jun-02 16:29N 39°33' W 026°16'4 7.4
2018-Jun-02 16:00N 39°33' W 026°11'68 5.9
2018-Jun-02 04:24N 39°16' W 027°37'3 8.0
2018-Jun-02 04:00N 39°16' W 027°41'4 7.9
2018-Jun-02 03:30N 39°15' W 027°46'4 7.7
2018-Jun-02 03:00N 39°14' W 027°51'4 7.7
2018-Jun-02 02:30N 39°14' W 027°56'4 7.7
2018-Jun-02 02:00N 39°13' W 028°01'4 7.8
2018-Jun-02 01:30N 39°13' W 028°06'4 7.5
2018-Jun-02 01:00N 39°12' W 028°11'4 7.4
2018-Jun-02 00:28N 39°11' W 028°16'3 7.2
2018-Jun-02 00:00N 39°11' W 028°20'4 7.1
2018-Jun-01 23:30N 39°10' W 028°24'4 7.5
2018-Jun-01 23:01N 39°10' W 028°29'4 6.9
2018-Jun-01 22:30N 39°09' W 028°34'2 5.0
2018-Jun-01 22:00N 39°09' W 028°37'3 5.6
2018-Jun-01 21:31N 39°08' W 028°40'3 5.4
2018-Jun-01 21:00N 39°07' W 028°44'3 6.2
2018-Jun-01 20:30N 39°07' W 028°48'2 4.4
2018-Jun-01 20:00N 39°09' W 028°50'3 5.3
2018-Jun-01 19:30N 39°10' W 028°53'3 6.2
2018-Jun-01 19:00N 39°11' W 028°56'3 5.8
2018-Jun-01 18:30N 39°13' W 028°60'3 5.0
2018-Jun-01 18:00N 39°15' W 029°02'3 5.2
2018-Jun-01 17:30N 39°16' W 029°05'3 6.0
2018-Jun-01 17:00N 39°17' W 029°08'3 6.3
2018-Jun-01 16:29N 39°19' W 029°11'3 6.2
2018-Jun-01 16:00N 39°21' W 029°15'3 5.1
2018-Jun-01 15:30N 39°22' W 029°17'3 6.9
2018-Jun-01 15:00N 39°21' W 029°22'3 5.7
2018-Jun-01 14:30N 39°20' W 029°25'3 5.8
2018-Jun-01 14:00N 39°18' W 029°28'3 6.2
2018-Jun-01 13:30N 39°17' W 029°31'3 5.7
2018-Jun-01 13:00N 39°16' W 029°35'3 6.0
2018-Jun-01 12:30N 39°16' W 029°39'3 5.2
2018-Jun-01 12:00N 39°15' W 029°42'3 5.8
2018-Jun-01 11:30N 39°14' W 029°46'2 4.6
2018-Jun-01 11:00N 39°15' W 029°48'3 5.4
2018-Jun-01 10:30N 39°18' W 029°48'1 1.4
2018-Jun-01 10:00N 39°19' W 029°48'2 2.8
2018-Jun-01 09:27N 39°20' W 029°48'1 1.7
2018-Jun-01 09:00N 39°21' W 029°49'2 3.9
2018-Jun-01 08:30N 39°21' W 029°46'3 6.9
2018-Jun-01 08:00N 39°21' W 029°42'3 7.0
2018-Jun-01 07:30N 39°21' W 029°38'3 6.9
2018-Jun-01 07:00N 39°21' W 029°33'4 7.0
2018-Jun-01 06:30N 39°21' W 029°29'4 7.4
2018-Jun-01 06:00N 39°21' W 029°24'4 7.3
2018-Jun-01 05:30N 39°20' W 029°19'4 7.2
2018-Jun-01 05:00N 39°20' W 029°14'4 7.2
2018-Jun-01 04:30N 39°20' W 029°10'4 7.3
2018-Jun-01 04:00N 39°20' W 029°05'4 7.2
2018-Jun-01 03:30N 39°20' W 029°00'4 7.3
2018-Jun-01 03:00N 39°20' W 028°56'4 7.4
2018-Jun-01 02:30N 39°20' W 028°51'4 7.1
2018-Jun-01 02:00N 39°20' W 028°46'3 7.0
2018-Jun-01 01:30N 39°20' W 028°42'3 6.9
2018-Jun-01 01:00N 39°20' W 028°37'7 3.1
2018-May-31 22:50N 39°14' W 028°39'18 7.8
2018-May-31 20:30N 39°13' W 029°03'4 8.1
2018-May-31 20:00N 39°13' W 029°08'4 8.2
2018-May-31 19:30N 39°13' W 029°13'4 7.7
2018-May-31 19:00N 39°13' W 029°18'3 6.5
2018-May-31 18:30N 39°16' W 029°19'3 5.2
2018-May-31 18:01N 39°19' W 029°18'3 5.2
2018-May-31 17:30N 39°20' W 029°15'2 3.8
2018-May-31 16:55N 39°21' W 029°13'2 4.0
2018-May-31 16:30N 39°20' W 029°11'2 3.3
2018-May-31 16:00N 39°19' W 029°12'3 6.4
2018-May-31 15:30N 39°17' W 029°15'2 4.6
2018-May-31 15:00N 39°15' W 029°17'3 5.6
2018-May-31 14:30N 39°13' W 029°19'3 5.3
2018-May-31 14:00N 39°11' W 029°22'3 6.5
2018-May-31 13:30N 39°08' W 029°23'4 8.5
2018-May-31 13:00N 39°04' W 029°25'2 4.9
2018-May-31 12:30N 39°03' W 029°28'2 4.8
2018-May-31 12:00N 39°02' W 029°31'2 5.0
2018-May-31 11:30N 39°01' W 029°33'2 4.6
2018-May-31 11:00N 39°00' W 029°36'3 5.3
2018-May-31 10:30N 39°02' W 029°39'3 5.1
2018-May-31 10:00N 39°03' W 029°42'3 6.6
2018-May-31 09:30N 39°00' W 029°45'4 6.6
2018-May-31 08:58N 38°58' W 029°48'2 4.9
2018-May-31 08:30N 38°56' W 029°50'3 5.6
2018-May-31 08:00N 38°57' W 029°53'3 6.1
2018-May-31 07:30N 38°59' W 029°55'2 5.0
2018-May-31 07:00N 39°02' W 029°54'3 5.9
2018-May-31 06:31N 39°05' W 029°53'2 4.0
2018-May-31 06:00N 39°07' W 029°53'1 1.3
2018-May-31 05:30N 39°07' W 029°53'1 2.5
2018-May-31 05:00N 39°06' W 029°53'3 5.5
2018-May-31 04:30N 39°09' W 029°52'3 5.4
2018-May-31 04:00N 39°11' W 029°51'3 5.5
2018-May-31 03:30N 39°14' W 029°51'2 4.7
2018-May-31 03:00N 39°16' W 029°50'2 4.5
2018-May-31 02:30N 39°19' W 029°50'2 4.6
2018-May-31 02:00N 39°21' W 029°50'2 3.5
2018-May-31 01:30N 39°23' W 029°49'1 2.6
2018-May-31 00:59N 39°24' W 029°48'1 1.2
2018-May-31 00:17N 39°25' W 029°48'0 0.8
2018-May-30 23:59N 39°25' W 029°48'0 0.8
2018-May-30 23:23N 39°24' W 029°47'0 0.8
2018-May-30 22:56N 39°24' W 029°47'0 0.7
2018-May-30 22:20N 39°24' W 029°46'0 0.7
2018-May-30 21:49N 39°24' W 029°46'0 0.5
2018-May-30 21:26N 39°25' W 029°45'0 0.6
2018-May-30 20:56N 39°25' W 029°45'3 6.6
2018-May-30 20:29N 39°22' W 029°45'3 7.1
2018-May-30 20:00N 39°18' W 029°45'4 7.1
2018-May-30 19:30N 39°15' W 029°45'4 7.0
2018-May-30 19:00N 39°11' W 029°45'3 6.1
2018-May-30 18:30N 39°11' W 029°41'3 6.8
2018-May-30 18:00N 39°11' W 029°37'4 7.1
2018-May-30 17:30N 39°11' W 029°32'4 7.1
2018-May-30 17:00N 39°11' W 029°28'4 7.2
2018-May-30 16:30N 39°11' W 029°23'4 7.3
2018-May-30 16:00N 39°11' W 029°18'4 7.7
2018-May-30 15:30N 39°11' W 029°13'2 4.9
2018-May-30 15:00N 39°09' W 029°12'2 4.8
2018-May-30 14:30N 39°11' W 029°11'3 5.4
2018-May-30 14:00N 39°14' W 029°12'2 3.6
2018-May-30 13:30N 39°16' W 029°13'3 5.2
2018-May-30 13:00N 39°16' W 029°16'3 5.4
2018-May-30 12:29N 39°14' W 029°20'2 4.5
2018-May-30 12:00N 39°14' W 029°22'2 4.9
2018-May-30 11:30N 39°13' W 029°25'2 4.6
2018-May-30 11:00N 39°14' W 029°28'1 2.9
2018-May-30 10:30N 39°15' W 029°30'1 1.5
2018-May-30 10:00N 39°15' W 029°30'3 5.6
2018-May-30 09:30N 39°18' W 029°29'2 4.9
2018-May-30 09:00N 39°20' W 029°28'3 5.8
2018-May-30 08:30N 39°23' W 029°30'3 6.3
2018-May-30 08:00N 39°25' W 029°33'2 3.3
2018-May-30 07:24N 39°26' W 029°35'0 0.7
2018-May-30 07:00N 39°26' W 029°35'2 4.8
2018-May-30 06:30N 39°24' W 029°37'2 4.0
2018-May-30 06:00N 39°22' W 029°38'1 2.6
2018-May-30 05:30N 39°21' W 029°39'1 2.7
2018-May-30 05:00N 39°20' W 029°40'1 2.9
2018-May-30 04:30N 39°19' W 029°41'2 3.1
2018-May-30 04:00N 39°18' W 029°42'2 3.1
2018-May-30 03:30N 39°16' W 029°44'2 3.2
2018-May-30 03:00N 39°15' W 029°45'2 3.2
2018-May-30 02:31N 39°14' W 029°46'2 3.1
2018-May-30 02:00N 39°13' W 029°47'2 3.0
2018-May-30 01:30N 39°11' W 029°48'3 6.6
2018-May-30 00:59N 39°08' W 029°51'3 6.8
2018-May-30 00:30N 39°05' W 029°52'4 7.0
2018-May-30 00:00N 39°02' W 029°53'3 6.6
2018-May-29 23:31N 38°59' W 029°52'3 5.0
2018-May-29 23:00N 38°57' W 029°50'3 7.0
2018-May-29 22:30N 38°57' W 029°46'4 7.2
2018-May-29 22:00N 38°57' W 029°41'4 7.5
2018-May-29 21:30N 38°57' W 029°36'4 7.5
2018-May-29 21:00N 38°57' W 029°32'4 7.4
2018-May-29 20:31N 38°57' W 029°27'4 7.4
2018-May-29 20:00N 38°57' W 029°22'4 7.8
2018-May-29 19:30N 38°57' W 029°17'4 7.2
2018-May-29 19:01N 38°58' W 029°13'4 8.0
2018-May-29 18:30N 39°01' W 029°10'4 8.0
2018-May-29 18:00N 39°04' W 029°06'1 2.9
2018-May-29 17:31N 39°05' W 029°05'3 6.3
2018-May-29 17:00N 39°04' W 029°01'2 5.0
2018-May-29 16:30N 39°03' W 028°58'3 6.5
2018-May-29 16:00N 39°01' W 028°54'3 6.7
2018-May-29 15:30N 39°00' W 028°50'4 7.0
2018-May-29 15:00N 39°02' W 028°47'3 6.5
2018-May-29 14:30N 39°06' W 028°46'3 6.3
2018-May-29 14:00N 39°09' W 028°47'2 4.6
2018-May-29 13:30N 39°11' W 028°47'3 5.6
2018-May-29 13:00N 39°14' W 028°47'3 6.2
2018-May-29 12:30N 39°17' W 028°46'3 6.3
2018-May-29 12:01N 39°20' W 028°44'3 5.8
2018-May-29 11:30N 39°23' W 028°43'2 4.4
2018-May-29 10:59N 39°25' W 028°44'3 6.5
2018-May-29 10:31N 39°26' W 028°47'3 5.8
2018-May-29 10:00N 39°28' W 028°50'3 5.8
2018-May-29 09:29N 39°29' W 028°54'3 6.0
2018-May-29 09:01N 39°30' W 028°57'3 6.0
2018-May-29 08:30N 39°31' W 029°01'2 4.6
2018-May-29 08:00N 39°32' W 029°04'4 7.2
2018-May-29 07:30N 39°31' W 029°08'4 7.2
2018-May-29 07:00N 39°30' W 029°13'3 6.8
2018-May-29 06:30N 39°29' W 029°17'3 6.7
2018-May-29 06:01N 39°29' W 029°21'3 6.6
2018-May-29 05:30N 39°28' W 029°26'3 6.6
2018-May-29 04:59N 39°27' W 029°30'3 5.7
2018-May-29 04:30N 39°25' W 029°32'4 8.1
2018-May-29 04:00N 39°20' W 029°32'3 6.9
2018-May-29 03:30N 39°17' W 029°30'4 8.4
2018-May-29 03:00N 39°13' W 029°30'4 8.0
2018-May-29 02:30N 39°10' W 029°27'4 7.8
2018-May-29 02:00N 39°07' W 029°23'4 7.8
2018-May-29 01:30N 39°05' W 029°19'60 2.7
2018-May-28 03:28N 39°38' W 028°14'13 6.7
2018-May-28 01:31N 39°37' W 028°31'0 6.3
2018-May-28 01:30N 39°37' W 028°31'3 6.6
2018-May-28 01:00N 39°37' W 028°35'3 6.8
2018-May-28 00:30N 39°36' W 028°40'4 7.1
2018-May-27 23:55N 39°36' W 028°45'3 7.1
2018-May-27 23:30N 39°36' W 028°49'4 7.1
2018-May-27 23:00N 39°35' W 028°54'3 7.0
2018-May-27 22:30N 39°35' W 028°58'4 6.9
2018-May-27 21:59N 39°34' W 029°03'3 7.0
2018-May-27 21:30N 39°34' W 029°07'5 7.0
2018-May-27 20:51N 39°33' W 029°13'4 6.5
2018-May-27 20:15N 39°33' W 029°18'2 6.1
2018-May-27 19:59N 39°32' W 029°20'4 7.0
2018-May-27 19:28N 39°29' W 029°19'4 7.6
2018-May-27 19:00N 39°25' W 029°18'3 6.2
2018-May-27 18:30N 39°23' W 029°15'4 7.2
2018-May-27 18:00N 39°23' W 029°10'4 7.1
2018-May-27 17:30N 39°23' W 029°06'3 7.0
2018-May-27 17:00N 39°23' W 029°01'4 7.2
2018-May-27 16:30N 39°23' W 028°56'4 7.1
2018-May-27 16:00N 39°23' W 028°52'4 7.1
2018-May-27 15:30N 39°23' W 028°47'3 6.9
2018-May-27 15:00N 39°22' W 028°43'4 7.1
2018-May-27 14:31N 39°21' W 028°38'4 7.3
2018-May-27 14:00N 39°20' W 028°34'1 2.8
2018-May-27 13:30N 39°20' W 028°32'3 6.1
2018-May-27 12:59N 39°17' W 028°33'3 5.8
2018-May-27 12:29N 39°14' W 028°34'3 5.3
2018-May-27 11:58N 39°11' W 028°36'2 4.4
2018-May-27 11:30N 39°09' W 028°37'3 5.1
2018-May-27 11:00N 39°07' W 028°39'2 4.0
2018-May-27 10:30N 39°06' W 028°41'3 6.1
2018-May-27 10:00N 39°05' W 028°44'2 4.7
2018-May-27 09:30N 39°04' W 028°47'2 4.2
2018-May-27 09:00N 39°05' W 028°50'2 3.2
2018-May-27 08:30N 39°05' W 028°52'2 3.7
2018-May-27 07:58N 39°06' W 028°54'1 2.3
2018-May-27 07:30N 39°07' W 028°55'3 5.1
2018-May-27 07:00N 39°09' W 028°57'3 5.0
2018-May-27 06:30N 39°11' W 028°58'3 6.0
2018-May-27 06:00N 39°14' W 028°59'3 6.4
2018-May-27 05:30N 39°17' W 029°02'2 3.6
2018-May-27 05:00N 39°18' W 029°03'2 5.0
2018-May-27 04:30N 39°21' W 029°02'2 3.5
2018-May-27 03:59N 39°22' W 029°03'0 1.0
2018-May-27 03:30N 39°23' W 029°03'2 4.2
2018-May-27 03:00N 39°24' W 029°01'2 4.2
2018-May-27 02:30N 39°25' W 028°59'2 4.5
2018-May-27 02:01N 39°27' W 028°57'4 7.3
2018-May-27 01:30N 39°29' W 028°53'4 7.7
2018-May-27 01:00N 39°32' W 028°50'4 7.9
2018-May-27 00:31N 39°35' W 028°46'4 7.9
2018-May-27 00:00N 39°37' W 028°42'4 7.9
2018-May-26 23:30N 39°40' W 028°38'4 7.7
2018-May-26 23:01N 39°42' W 028°34'17 3.1
2018-May-26 17:23N 39°32' W 028°16'3 8.0
2018-May-26 16:59N 39°31' W 028°20'4 7.9
2018-May-26 16:30N 39°29' W 028°25'5 7.7
2018-May-26 15:51N 39°28' W 028°31'3 7.6
2018-May-26 15:30N 39°27' W 028°34'2 4.6
2018-May-26 14:57N 39°28' W 028°37'2 5.5
2018-May-26 14:30N 39°30' W 028°38'3 6.0
2018-May-26 14:00N 39°30' W 028°42'3 6.2
2018-May-26 13:30N 39°29' W 028°46'3 6.4
2018-May-26 13:00N 39°30' W 028°50'3 6.8
2018-May-26 12:30N 39°33' W 028°53'3 6.8
2018-May-26 12:00N 39°35' W 028°56'3 6.3
2018-May-26 11:30N 39°38' W 028°59'4 7.0
2018-May-26 10:59N 39°40' W 029°03'3 6.6
2018-May-26 10:29N 39°40' W 029°07'3 6.4
2018-May-26 10:00N 39°40' W 029°11'4 5.7
2018-May-26 09:20N 39°39' W 029°16'3 7.4
2018-May-26 08:58N 39°39' W 029°19'3 6.2
2018-May-26 08:30N 39°38' W 029°23'4 7.0
2018-May-26 07:59N 39°37' W 029°27'3 5.3
2018-May-26 07:26N 39°36' W 029°31'2 3.8
2018-May-26 06:59N 39°35' W 029°33'6 2.8
2018-May-26 04:48N 39°30' W 029°29'2 6.5
2018-May-26 04:30N 39°29' W 029°27'3 6.7
2018-May-26 04:01N 39°26' W 029°24'3 6.6
2018-May-26 03:30N 39°24' W 029°21'3 6.4
2018-May-26 03:00N 39°22' W 029°18'3 6.2
2018-May-26 02:30N 39°20' W 029°15'2 3.4
2018-May-26 01:58N 39°18' W 029°13'0 0.4
2018-May-26 01:24N 39°18' W 029°14'0 0.5
2018-May-26 00:55N 39°18' W 029°14'0 0.6
2018-May-26 00:29N 39°18' W 029°14'0 0.7
2018-May-25 23:59N 39°18' W 029°15'0 0.5
2018-May-25 23:30N 39°18' W 029°15'0 0.5
2018-May-25 22:57N 39°18' W 029°15'0 0.5
2018-May-25 22:30N 39°17' W 029°15'0 0.5
2018-May-25 22:00N 39°17' W 029°16'  

Dump ship's entire track history